Time;durP1;ratioP1;P1;durP2;ratioP2;P2;SDS_P1;SDS_P2;PMS_P1;PMS_P2;Temp;Humidity;BMP_temperature;BMP_pressure;BME280_temperature;BME280_humidity;BME280_pressure;Samples;Min_cycle;Max_cycle;Signal;HPM_P1;HPM_P2
2022/06/24 00:00:14;;;;;;;0.75;0.75;;;22.90;73.00;;;;;;5049837;28;20049;-69
2022/06/24 00:02:46;;;;;;;0.28;0.28;;;22.80;72.90;;;;;;5048358;28;20053;-69
2022/06/24 00:05:12;;;;;;;0.35;0.35;;;22.80;72.20;;;;;;5048130;28;20383;-69
2022/06/24 00:07:52;;;;;;;0.13;0.13;;;22.80;72.20;;;;;;5048791;28;20584;-69
2022/06/24 00:10:21;;;;;;;0.00;0.00;;;22.80;72.60;;;;;;5049354;28;20057;-69
2022/06/24 00:12:48;;;;;;;0.05;0.05;;;22.80;72.40;;;;;;5048253;28;20174;-69
2022/06/24 00:15:14;;;;;;;0.10;0.10;;;22.70;72.80;;;;;;5048642;28;20053;-68
2022/06/24 00:17:40;;;;;;;0.13;0.13;;;22.70;73.10;;;;;;5048475;28;20063;-69
2022/06/24 00:20:08;;;;;;;0.10;0.10;;;22.70;72.40;;;;;;5049346;28;20044;-69
2022/06/24 00:22:42;;;;;;;0.00;0.00;;;22.70;72.40;;;;;;5048400;28;20571;-69
2022/06/24 00:25:13;;;;;;;0.00;0.00;;;22.70;73.00;;;;;;5049429;28;20041;-69
2022/06/24 00:27:40;;;;;;;0.00;0.00;;;22.60;72.90;;;;;;5048742;28;20044;-69
2022/06/24 00:30:12;;;;;;;0.10;0.10;;;22.60;72.80;;;;;;5048495;28;20494;-69
2022/06/24 00:32:37;;;;;;;0.00;0.00;;;22.60;72.60;;;;;;5047573;28;20056;-70
2022/06/24 00:35:09;;;;;;;0.00;0.00;;;22.60;72.60;;;;;;5048709;28;20576;-70
2022/06/24 00:37:36;;;;;;;0.00;0.00;;;22.60;72.70;;;;;;5048688;28;20053;-69
2022/06/24 00:40:23;;;;;;;1.42;0.40;;;22.50;72.90;;;;;;5048880;28;20644;-69
2022/06/24 00:42:49;;;;;;;0.00;0.00;;;22.60;72.50;;;;;;5047780;28;20051;-69
2022/06/24 00:45:38;;;;;;;0.10;0.10;;;22.50;72.70;;;;;;5048270;28;20048;-69
2022/06/24 00:48:12;;;;;;;0.52;0.20;;;22.50;73.10;;;;;;5048549;28;20055;-69
2022/06/24 00:50:43;;;;;;;0.00;0.00;;;22.50;72.90;;;;;;5048284;28;20587;-69
2022/06/24 00:53:09;;;;;;;0.05;0.05;;;22.50;72.80;;;;;;5041507;28;20083;-69
2022/06/24 00:55:37;;;;;;;0.00;0.00;;;22.50;73.00;;;;;;5048916;28;20065;-69
2022/06/24 00:58:04;;;;;;;0.10;0.10;;;22.40;73.00;;;;;;5048814;28;20060;-70
2022/06/24 01:00:32;;;;;;;0.00;0.00;;;22.40;73.20;;;;;;5046816;28;20049;-69
2022/06/24 01:03:02;;;;;;;0.00;0.00;;;22.30;73.40;;;;;;5048018;28;20512;-69
2022/06/24 01:05:29;;;;;;;0.00;0.00;;;22.40;73.40;;;;;;5048917;28;20056;-69
2022/06/24 01:07:56;;;;;;;0.00;0.00;;;22.30;73.80;;;;;;5048080;28;20434;-70
2022/06/24 01:10:22;;;;;;;0.00;0.00;;;22.30;74.20;;;;;;5047961;28;20418;-69
2022/06/24 01:12:48;;;;;;;0.10;0.10;;;22.30;74.00;;;;;;5047783;28;20048;-69
2022/06/24 01:15:14;;;;;;;0.03;0.03;;;22.40;74.00;;;;;;5048331;28;20056;-69
2022/06/24 01:17:39;;;;;;;0.35;0.25;;;22.40;74.40;;;;;;5048633;28;20056;-70
2022/06/24 01:20:09;;;;;;;0.00;0.00;;;22.30;75.20;;;;;;5048460;28;20718;-69
2022/06/24 01:22:35;;;;;;;0.00;0.00;;;22.30;75.20;;;;;;5048165;28;20041;-69
2022/06/24 01:25:01;;;;;;;0.00;0.00;;;22.20;74.50;;;;;;5048187;28;20057;-69
2022/06/24 01:27:26;;;;;;;0.00;0.00;;;22.20;75.10;;;;;;5047945;28;20860;-69
2022/06/24 01:29:53;;;;;;;0.00;0.00;;;22.10;75.40;;;;;;5048017;28;20080;-69
2022/06/24 01:32:18;;;;;;;0.00;0.00;;;22.10;75.30;;;;;;5047614;28;20916;-70
2022/06/24 01:34:44;;;;;;;0.00;0.00;;;22.10;75.60;;;;;;5048160;28;20044;-69
2022/06/24 01:37:09;;;;;;;0.00;0.00;;;22.10;76.00;;;;;;5048605;28;20047;-69
2022/06/24 01:39:35;;;;;;;0.00;0.00;;;22.10;76.00;;;;;;5047548;28;20056;-69
2022/06/24 01:42:01;;;;;;;0.00;0.00;;;22.00;76.00;;;;;;5048221;28;20045;-69
2022/06/24 01:44:27;;;;;;;0.00;0.00;;;22.00;75.80;;;;;;5048382;28;20033;-69
2022/06/24 01:46:52;;;;;;;0.10;0.10;;;22.00;75.90;;;;;;5048802;28;20055;-69
2022/06/24 01:49:18;;;;;;;0.17;0.17;;;22.00;76.80;;;;;;5051580;28;20523;-70
2022/06/24 01:51:47;;;;;;;0.00;0.00;;;22.00;76.70;;;;;;5051600;28;20087;-69
2022/06/24 01:54:12;;;;;;;0.00;0.00;;;21.90;76.50;;;;;;5051423;28;20048;-69
2022/06/24 01:56:38;;;;;;;2.28;1.13;;;21.90;76.80;;;;;;5052009;28;20033;-69
2022/06/24 01:59:04;;;;;;;0.00;0.00;;;21.80;76.50;;;;;;5051225;28;20460;-69
2022/06/24 02:01:30;;;;;;;0.00;0.00;;;21.80;76.20;;;;;;5050811;28;20037;-69
2022/06/24 02:03:56;;;;;;;0.00;0.00;;;21.80;76.00;;;;;;5051001;28;20098;-70
2022/06/24 02:06:21;;;;;;;0.00;0.00;;;21.80;75.60;;;;;;5051665;28;20037;-69
2022/06/24 02:08:47;;;;;;;0.00;0.00;;;21.80;75.90;;;;;;5050582;28;20507;-69
2022/06/24 02:13:59;;;;;;;0.00;0.00;;;21.80;76.70;;;;;;5051021;28;20049;-70
2022/06/24 02:16:26;;;;;;;0.00;0.00;;;21.80;76.90;;;;;;5050432;28;20046;-70
2022/06/24 02:18:54;;;;;;;0.00;0.00;;;21.80;77.70;;;;;;5050842;28;20041;-70
2022/06/24 02:21:23;;;;;;;0.00;0.00;;;21.90;77.80;;;;;;5050568;28;20502;-69
2022/06/24 02:23:49;;;;;;;0.00;0.00;;;21.80;76.90;;;;;;5050758;28;20036;-69
2022/06/24 02:26:14;;;;;;;0.00;0.00;;;21.70;76.70;;;;;;5050870;28;20398;-69
2022/06/24 02:28:40;;;;;;;0.00;0.00;;;21.80;76.90;;;;;;5050627;28;20098;-69
2022/06/24 02:31:06;;;;;;;0.00;0.00;;;21.80;77.50;;;;;;5050663;28;20424;-69
2022/06/24 02:33:31;;;;;;;0.00;0.00;;;21.80;77.70;;;;;;5050784;28;20045;-70
2022/06/24 02:35:58;;;;;;;0.00;0.00;;;21.80;77.00;;;;;;5050686;28;20041;-70
2022/06/24 02:38:23;;;;;;;0.00;0.00;;;21.80;76.70;;;;;;5050018;28;20091;-70
2022/06/24 02:40:49;;;;;;;0.00;0.00;;;21.70;76.80;;;;;;5050984;28;20087;-69
2022/06/24 02:43:20;;;;;;;0.00;0.00;;;21.70;76.80;;;;;;5050799;28;20041;-69
2022/06/24 02:45:51;;;;;;;0.00;0.00;;;21.70;76.90;;;;;;5036844;28;20498;-70
2022/06/24 02:48:18;;;;;;;;;;;21.70;77.20;;;;;;5050292;28;20048;-69
2022/06/24 02:50:46;;;;;;;0.00;0.00;;;21.70;78.30;;;;;;5030560;28;20378;-69
2022/06/24 02:53:14;;;;;;;0.10;0.10;;;21.60;78.50;;;;;;5063775;28;20045;-70
2022/06/24 02:55:41;;;;;;;0.00;0.00;;;21.60;78.60;;;;;;5050611;28;20072;-69
2022/06/24 02:58:07;;;;;;;0.00;0.00;;;21.60;78.00;;;;;;5049018;28;20494;-69
2022/06/24 03:00:33;;;;;;;0.00;0.00;;;21.50;77.50;;;;;;5049759;28;20086;-70
2022/06/24 03:02:59;;;;;;;0.00;0.00;;;21.60;77.70;;;;;;5049590;28;20045;-70
2022/06/24 03:05:25;;;;;;;0.00;0.00;;;21.60;77.80;;;;;;5050193;28;20045;-69
2022/06/24 03:07:51;;;;;;;0.00;0.00;;;21.60;77.60;;;;;;5049971;28;20053;-69
2022/06/24 03:10:17;;;;;;;0.00;0.00;;;21.50;77.30;;;;;;5049825;28;20055;-69
2022/06/24 03:12:43;;;;;;;0.00;0.00;;;21.50;77.50;;;;;;5049951;28;20049;-69
2022/06/24 03:15:10;;;;;;;0.00;0.00;;;21.50;78.00;;;;;;5049487;28;20059;-70
2022/06/24 03:17:36;;;;;;;0.00;0.00;;;21.60;78.10;;;;;;5049534;28;20048;-69
2022/06/24 03:20:02;;;;;;;0.00;0.00;;;21.60;78.00;;;;;;5049828;28;20402;-70
2022/06/24 03:22:28;;;;;;;0.38;0.32;;;21.60;77.50;;;;;;5049495;28;20091;-69
2022/06/24 03:24:53;;;;;;;0.20;0.20;;;21.50;79.10;;;;;;5049537;28;20048;-68
2022/06/24 03:27:19;;;;;;;0.10;0.10;;;21.40;79.10;;;;;;5050050;28;20064;-69
2022/06/24 03:29:46;;;;;;;0.00;0.00;;;21.30;79.30;;;;;;5049382;28;20040;-69
2022/06/24 03:32:12;;;;;;;0.10;0.10;;;21.30;79.30;;;;;;5049871;28;20041;-69
2022/06/24 03:34:38;;;;;;;0.00;0.00;;;21.30;79.60;;;;;;5049421;28;20103;-69
2022/06/24 03:37:04;;;;;;;0.20;0.20;;;21.30;80.70;;;;;;5049505;28;20041;-69
2022/06/24 03:39:30;;;;;;;2.55;1.45;;;21.30;81.20;;;;;;5049756;28;20090;-69
2022/06/24 03:41:56;;;;;;;0.10;0.10;;;21.30;81.30;;;;;;5049727;28;20489;-69
2022/06/24 03:44:21;;;;;;;0.20;0.20;;;21.20;81.90;;;;;;5049268;28;20453;-69
2022/06/24 03:46:47;;;;;;;0.00;0.00;;;21.20;81.50;;;;;;5048817;28;20128;-69
2022/06/24 03:49:12;;;;;;;0.00;0.00;;;21.20;82.50;;;;;;5049365;28;20047;-69
2022/06/24 03:51:38;;;;;;;0.15;0.15;;;21.20;83.20;;;;;;5047422;28;20501;-69
2022/06/24 03:54:04;;;;;;;0.10;0.10;;;21.10;83.90;;;;;;5047921;28;20393;-66
2022/06/24 03:56:29;;;;;;;0.00;0.00;;;21.10;83.40;;;;;;5049561;28;20044;-69
2022/06/24 03:58:55;;;;;;;0.00;0.00;;;21.10;83.40;;;;;;5049461;28;21193;-69
2022/06/24 04:01:20;;;;;;;0.00;0.00;;;21.00;83.70;;;;;;5048795;28;20098;-68
2022/06/24 04:03:46;;;;;;;0.00;0.00;;;20.90;83.80;;;;;;5049506;28;20045;-68
2022/06/24 04:06:11;;;;;;;1.55;0.80;;;20.80;83.60;;;;;;5049231;28;20425;-66
2022/06/24 04:08:37;;;;;;;0.52;0.22;;;20.70;84.40;;;;;;5049095;28;20489;-68
2022/06/24 04:11:16;;;;;;;0.47;0.47;;;20.60;84.90;;;;;;5047829;28;20080;-68
2022/06/24 04:13:42;;;;;;;2.72;1.95;;;20.50;85.20;;;;;;5040963;28;20044;-68
2022/06/24 04:16:08;;;;;;;0.00;0.00;;;20.30;85.50;;;;;;5040424;28;20044;-68
2022/06/24 04:18:34;;;;;;;1.55;0.80;;;20.30;85.60;;;;;;5048882;28;20041;-68
2022/06/24 04:21:00;;;;;;;0.00;0.00;;;20.10;85.40;;;;;;5048731;28;20627;-68
2022/06/24 04:23:26;;;;;;;2.72;0.88;;;20.00;87.10;;;;;;5048971;28;20048;-67
2022/06/24 04:25:53;;;;;;;3.00;1.55;;;19.90;87.40;;;;;;5048740;28;20037;-68
2022/06/24 04:28:19;;;;;;;0.00;0.00;;;19.70;88.00;;;;;;5049336;28;20505;-68
2022/06/24 04:30:45;;;;;;;0.00;0.00;;;19.60;88.20;;;;;;5048773;28;20707;-68
2022/06/24 04:33:11;;;;;;;0.10;0.10;;;19.60;88.40;;;;;;5048725;28;20052;-68
2022/06/24 04:35:36;;;;;;;0.65;0.65;;;19.40;89.00;;;;;;5048824;28;20037;-68
2022/06/24 04:38:02;;;;;;;0.00;0.00;;;19.40;89.20;;;;;;5049269;28;20052;-69
2022/06/24 04:40:28;;;;;;;0.00;0.00;;;19.30;89.60;;;;;;5048976;28;20041;-68
2022/06/24 04:42:54;;;;;;;0.00;0.00;;;19.30;89.90;;;;;;5048936;28;20055;-68
2022/06/24 04:45:20;;;;;;;0.00;0.00;;;19.20;90.10;;;;;;5047592;28;20417;-68
2022/06/24 04:47:45;;;;;;;0.00;0.00;;;19.20;90.60;;;;;;5047275;28;20033;-68
2022/06/24 04:50:11;;;;;;;0.00;0.00;;;19.20;90.40;;;;;;5048438;28;20044;-68
2022/06/24 04:52:38;;;;;;;0.00;0.00;;;19.30;90.30;;;;;;5048107;28;20044;-68
2022/06/24 04:55:05;;;;;;;0.00;0.00;;;19.30;90.10;;;;;;5048466;28;20041;-68
2022/06/24 04:57:31;;;;;;;0.00;0.00;;;19.30;89.90;;;;;;5048742;28;20033;-68
2022/06/24 04:59:57;;;;;;;0.00;0.00;;;19.30;90.40;;;;;;5047833;28;20098;-68
2022/06/24 05:02:22;;;;;;;0.00;0.00;;;19.20;90.80;;;;;;5047623;28;20049;-67
2022/06/24 05:04:48;;;;;;;0.03;0.03;;;19.20;90.70;;;;;;5046343;28;20079;-67
2022/06/24 05:07:14;;;;;;;0.75;0.43;;;19.10;90.80;;;;;;5048414;28;20119;-67
2022/06/24 05:09:39;;;;;;;0.00;0.00;;;19.20;90.90;;;;;;5048096;28;20890;-68
2022/06/24 05:12:05;;;;;;;0.08;0.08;;;19.20;90.60;;;;;;5029084;28;20108;-68
2022/06/24 05:14:31;;;;;;;0.00;0.00;;;19.10;90.80;;;;;;5044628;28;20507;-67
2022/06/24 05:16:57;;;;;;;0.10;0.10;;;19.10;91.00;;;;;;5047953;28;20471;-67
2022/06/24 05:19:23;;;;;;;0.00;0.00;;;19.00;91.10;;;;;;5048447;28;20076;-69
2022/06/24 05:21:49;;;;;;;0.03;0.03;;;19.00;91.30;;;;;;5046616;28;20077;-69
2022/06/24 05:24:15;;;;;;;0.00;0.00;;;19.10;91.50;;;;;;5050822;28;20099;-71
2022/06/24 05:26:42;;;;;;;0.73;0.73;;;19.00;91.50;;;;;;5051590;28;20056;-68
2022/06/24 05:29:08;;;;;;;0.00;0.00;;;19.00;91.70;;;;;;5051128;28;20052;-68
2022/06/24 05:31:33;;;;;;;3.40;1.65;;;18.90;92.00;;;;;;5051145;28;20912;-69
2022/06/24 05:33:59;;;;;;;0.00;0.00;;;18.90;92.10;;;;;;5051052;28;20056;-69
2022/06/24 05:36:25;;;;;;;0.38;0.38;;;18.90;92.50;;;;;;5051545;28;20421;-70
2022/06/24 05:38:50;;;;;;;0.00;0.00;;;19.00;92.50;;;;;;5051144;28;20044;-71
2022/06/24 05:41:17;;;;;;;0.00;0.00;;;19.00;92.60;;;;;;5049735;28;20052;-69
2022/06/24 05:43:45;;;;;;;0.00;0.00;;;19.00;92.60;;;;;;5050577;28;20045;-69
2022/06/24 05:46:12;;;;;;;0.85;0.43;;;19.10;92.40;;;;;;5050513;28;20057;-70
2022/06/24 05:48:38;;;;;;;0.00;0.00;;;19.10;92.60;;;;;;5032755;28;20037;-70
2022/06/24 05:51:12;;;;;;;0.00;0.00;;;19.10;92.40;;;;;;5052962;28;20049;-70
2022/06/24 05:56:23;;;;;;;0.00;0.00;;;19.00;92.40;;;;;;5040800;28;20135;-69
2022/06/24 05:58:48;;;;;;;0.00;0.00;;;19.00;92.20;;;;;;5050485;28;20326;-68
2022/06/24 06:01:14;;;;;;;0.73;0.73;;;18.90;92.20;;;;;;5050002;28;20091;-69
2022/06/24 06:03:40;;;;;;;0.10;0.10;;;18.90;92.00;;;;;;5050227;28;20044;-68
2022/06/24 06:06:07;;;;;;;0.10;0.10;;;18.80;92.20;;;;;;5053560;28;20053;-68
2022/06/24 06:08:34;;;;;;;0.00;0.00;;;18.80;92.30;;;;;;5050625;28;20037;-68
2022/06/24 06:11:00;;;;;;;0.00;0.00;;;18.80;92.20;;;;;;5050619;28;20150;-71
2022/06/24 06:13:26;;;;;;;0.00;0.00;;;18.90;92.20;;;;;;5050339;28;20123;-67
2022/06/24 06:15:51;;;;;;;0.00;0.00;;;18.90;91.90;;;;;;5065874;28;20049;-67
2022/06/24 06:18:17;;;;;;;0.00;0.00;;;18.90;91.60;;;;;;5051200;28;20045;-67
2022/06/24 06:20:43;;;;;;;0.00;0.00;;;18.90;91.50;;;;;;5050778;28;20040;-68
2022/06/24 06:23:08;;;;;;;1.02;0.90;;;18.90;91.40;;;;;;5051159;28;20143;-68
2022/06/24 06:25:34;;;;;;;3.10;0.75;;;18.90;91.40;;;;;;5050959;28;20151;-67
2022/06/24 06:28:01;;;;;;;0.00;0.00;;;18.90;91.50;;;;;;5050598;28;20052;-68
2022/06/24 06:30:31;;;;;;;0.00;0.00;;;18.80;91.60;;;;;;5051280;28;20048;-68
2022/06/24 06:32:57;;;;;;;0.20;0.20;;;18.90;91.70;;;;;;5049528;28;20041;-67
2022/06/24 06:35:22;;;;;;;0.03;0.03;;;18.90;91.60;;;;;;5051116;28;20391;-67
2022/06/24 06:37:48;;;;;;;0.00;0.00;;;19.00;91.50;;;;;;5050617;28;20123;-67
2022/06/24 06:40:14;;;;;;;0.00;0.00;;;19.00;91.80;;;;;;5050682;28;20033;-67
2022/06/24 06:42:39;;;;;;;0.10;0.10;;;19.10;91.70;;;;;;5050622;28;20045;-67
2022/06/24 06:45:05;;;;;;;0.00;0.00;;;19.20;91.70;;;;;;5050919;28;20072;-67
2022/06/24 06:47:31;;;;;;;0.00;0.00;;;19.30;91.50;;;;;;5051092;28;20052;-67
2022/06/24 06:49:57;;;;;;;0.00;0.00;;;19.40;91.40;;;;;;5049761;28;20040;-66
2022/06/24 06:52:22;;;;;;;0.00;0.00;;;19.50;91.20;;;;;;5050464;28;20033;-65
2022/06/24 06:54:48;;;;;;;0.00;0.00;;;19.50;91.10;;;;;;5040900;28;20048;-65
2022/06/24 06:57:13;;;;;;;0.00;0.00;;;19.40;90.90;;;;;;5035006;28;20045;-65
2022/06/24 06:59:39;;;;;;;0.10;0.10;;;19.50;91.00;;;;;;5042753;28;20452;-66
2022/06/24 07:02:05;;;;;;;0.22;0.22;;;19.40;91.10;;;;;;5049742;28;20045;-65
2022/06/24 07:04:30;;;;;;;0.65;0.65;;;19.50;91.00;;;;;;5044417;28;20041;-65
2022/06/24 07:06:57;;;;;;;0.08;0.08;;;19.50;91.00;;;;;;5040204;28;20045;-65
2022/06/24 07:09:24;;;;;;;0.10;0.10;;;19.50;91.20;;;;;;5049015;28;20049;-65
2022/06/24 07:11:50;;;;;;;0.00;0.00;;;19.50;91.20;;;;;;5049301;28;20086;-67
2022/06/24 07:14:16;;;;;;;0.00;0.00;;;19.50;91.20;;;;;;5041753;28;20049;-67
2022/06/24 07:16:41;;;;;;;0.00;0.00;;;19.50;91.20;;;;;;5048963;28;20490;-67
2022/06/24 07:19:07;;;;;;;0.00;0.00;;;19.60;91.30;;;;;;5043417;28;20564;-66
2022/06/24 07:21:33;;;;;;;0.00;0.00;;;19.60;91.20;;;;;;5048804;28;20136;-69
2022/06/24 07:23:59;;;;;;;0.00;0.00;;;19.50;91.10;;;;;;5040174;28;20564;-68
2022/06/24 07:26:25;;;;;;;0.00;0.00;;;19.60;91.00;;;;;;5048773;28;20041;-69
2022/06/24 07:28:50;;;;;;;0.00;0.00;;;19.60;91.00;;;;;;5048928;28;20452;-69
2022/06/24 07:31:19;;;;;;;0.00;0.00;;;19.70;90.80;;;;;;5040522;28;20041;-71
2022/06/24 07:33:45;;;;;;;0.00;0.00;;;19.70;90.50;;;;;;5062904;28;20045;-70
2022/06/24 07:36:11;;;;;;;0.00;0.00;;;19.90;90.10;;;;;;5048273;28;20047;-65
2022/06/24 07:38:37;;;;;;;0.00;0.00;;;20.10;89.60;;;;;;5047205;28;20496;-66
2022/06/24 07:41:03;;;;;;;0.00;0.00;;;20.30;88.90;;;;;;5049368;28;20036;-66
2022/06/24 07:43:29;;;;;;;0.00;0.00;;;20.50;88.80;;;;;;5048000;28;20220;-67
2022/06/24 07:45:55;;;;;;;0.00;0.00;;;20.50;88.50;;;;;;5049544;28;20150;-67
2022/06/24 07:48:21;;;;;;;0.00;0.00;;;20.50;88.30;;;;;;5048577;28;20049;-67
2022/06/24 07:50:46;;;;;;;0.00;0.00;;;20.50;88.10;;;;;;5048032;28;20829;-67
2022/06/24 07:53:12;;;;;;;0.00;0.00;;;20.60;88.00;;;;;;5049340;28;20072;-66
2022/06/24 07:58:22;;;;;;;0.00;0.00;;;20.60;87.70;;;;;;5049391;28;20048;-66
2022/06/24 08:00:48;;;;;;;0.00;0.00;;;20.70;87.70;;;;;;5048855;28;20573;-67
2022/06/24 08:03:14;;;;;;;0.00;0.00;;;20.60;87.50;;;;;;5049398;28;20040;-66
2022/06/24 08:05:40;;;;;;;0.00;0.00;;;20.60;87.20;;;;;;5049156;28;20045;-66
2022/06/24 08:08:06;;;;;;;0.00;0.00;;;20.60;87.10;;;;;;5048996;28;20562;-67
2022/06/24 08:10:32;;;;;;;0.00;0.00;;;20.50;86.90;;;;;;5049207;28;20076;-66
2022/06/24 08:12:58;;;;;;;0.00;0.00;;;20.50;87.20;;;;;;5037830;28;20059;-66
2022/06/24 08:15:24;;;;;;;0.00;0.00;;;20.50;87.20;;;;;;5027954;28;20048;-66
2022/06/24 08:17:50;;;;;;;0.00;0.00;;;20.50;87.20;;;;;;5035166;28;20044;-67
2022/06/24 08:20:16;;;;;;;0.00;0.00;;;20.40;87.20;;;;;;5048264;28;20041;-66
2022/06/24 08:22:41;;;;;;;0.00;0.00;;;20.30;87.20;;;;;;5048893;28;20037;-67
2022/06/24 08:25:08;;;;;;;0.00;0.00;;;20.10;87.20;;;;;;5032074;28;20049;-67
2022/06/24 08:27:33;;;;;;;0.00;0.00;;;19.90;87.30;;;;;;5045649;28;20041;-67
2022/06/24 08:29:59;;;;;;;0.00;0.00;;;19.80;87.30;;;;;;5035904;28;20150;-67
2022/06/24 08:32:25;;;;;;;0.00;0.00;;;19.60;87.60;;;;;;5041657;28;20049;-67
2022/06/24 08:34:50;;;;;;;0.00;0.00;;;19.30;87.70;;;;;;5048449;28;20045;-67
2022/06/24 08:37:16;;;;;;;0.00;0.00;;;19.30;88.10;;;;;;5046763;28;20041;-68
2022/06/24 08:39:41;;;;;;;0.00;0.00;;;19.20;88.00;;;;;;5047680;28;20116;-67
2022/06/24 08:42:11;;;;;;;0.13;0.13;;;19.10;87.40;;;;;;5049170;28;20045;-67
2022/06/24 08:44:37;;;;;;;0.00;0.00;;;19.00;87.60;;;;;;5047172;28;20497;-67
2022/06/24 08:47:03;;;;;;;0.00;0.00;;;19.00;87.60;;;;;;5048279;28;20095;-68
2022/06/24 08:49:32;;;;;;;0.00;0.00;;;19.00;87.60;;;;;;5047575;28;20162;-68
2022/06/24 08:51:59;;;;;;;0.00;0.00;;;18.90;88.00;;;;;;5047693;28;20052;-68
2022/06/24 08:54:29;;;;;;;0.00;0.00;;;18.90;88.20;;;;;;5047601;28;20402;-68
2022/06/24 08:56:55;;;;;;;0.00;0.00;;;18.90;88.20;;;;;;5050757;28;20079;-68
2022/06/24 08:59:20;;;;;;;0.00;0.00;;;18.90;88.00;;;;;;5051935;28;20060;-68
2022/06/24 09:01:47;;;;;;;0.47;0.25;;;19.00;88.00;;;;;;5051667;28;20041;-67
2022/06/24 09:04:13;;;;;;;0.00;0.00;;;19.00;88.10;;;;;;5045248;28;20753;-68
2022/06/24 09:06:40;;;;;;;0.00;0.00;;;19.00;88.20;;;;;;5033898;28;20617;-67
2022/06/24 09:09:07;;;;;;;0.00;0.00;;;19.10;88.40;;;;;;5047960;28;20075;-67
2022/06/24 09:11:40;;;;;;;0.00;0.00;;;19.10;88.50;;;;;;5050961;28;20137;-67
2022/06/24 09:14:08;;;;;;;0.00;0.00;;;19.10;88.60;;;;;;5051953;28;20037;-67
2022/06/24 09:16:37;;;;;;;0.00;0.00;;;19.20;88.50;;;;;;5051349;28;20045;-67
2022/06/24 09:19:05;;;;;;;0.00;0.00;;;19.10;88.50;;;;;;5051134;28;20418;-68
2022/06/24 09:21:36;;;;;;;0.00;0.00;;;19.10;88.70;;;;;;5052097;28;20077;-67
2022/06/24 09:24:03;;;;;;;0.00;0.00;;;19.20;88.60;;;;;;5050902;28;20095;-68
2022/06/24 09:26:31;;;;;;;0.00;0.00;;;19.10;88.40;;;;;;5067513;28;20041;-67
2022/06/24 09:28:58;;;;;;;0.00;0.00;;;19.10;88.40;;;;;;5052015;28;20442;-68
2022/06/24 09:31:28;;;;;;;0.00;0.00;;;19.10;88.40;;;;;;5051322;28;20041;-67
2022/06/24 09:33:54;;;;;;;0.00;0.00;;;19.20;88.50;;;;;;5066355;28;20521;-68
2022/06/24 09:36:25;;;;;;;0.00;0.00;;;19.20;88.30;;;;;;5050382;28;20045;-68
2022/06/24 09:38:56;;;;;;;0.00;0.00;;;19.20;88.30;;;;;;5049212;28;20041;-67
2022/06/24 09:41:23;;;;;;;0.00;0.00;;;19.30;88.30;;;;;;5050136;28;20103;-67
2022/06/24 09:43:51;;;;;;;0.00;0.00;;;19.30;88.40;;;;;;5048553;28;20037;-67
2022/06/24 09:46:22;;;;;;;0.00;0.00;;;19.40;88.40;;;;;;5051224;28;20048;-68
2022/06/24 09:48:50;;;;;;;0.98;0.43;;;19.50;88.50;;;;;;5049143;28;20045;-68
2022/06/24 09:51:17;;;;;;;0.00;0.00;;;19.50;88.50;;;;;;5065645;28;20049;-68
2022/06/24 09:53:43;;;;;;;0.00;0.00;;;19.50;88.40;;;;;;5066678;28;20071;-67
2022/06/24 09:56:10;;;;;;;0.00;0.00;;;19.60;88.30;;;;;;5051173;28;20268;-67
2022/06/24 10:00:40;;;;;;;0.00;0.00;;;19.70;88.30;;;;;;5046168;28;20131;-68
2022/06/24 10:01:31;;;;;;;0.00;0.00;;;19.70;88.20;;;;;;5050324;28;20055;-68
2022/06/24 10:03:57;;;;;;;0.00;0.00;;;19.80;88.30;;;;;;5050144;28;20041;-68
2022/06/24 10:06:25;;;;;;;0.00;0.00;;;19.80;88.20;;;;;;5050531;28;20079;-68
2022/06/24 10:08:52;;;;;;;0.00;0.00;;;19.90;88.20;;;;;;5044013;28;20040;-67
2022/06/24 10:11:18;;;;;;;0.10;0.10;;;19.80;88.10;;;;;;5049446;28;20143;-67
2022/06/24 10:13:44;;;;;;;0.00;0.00;;;19.70;88.30;;;;;;5050448;28;20057;-67
2022/06/24 10:16:10;;;;;;;0.00;0.00;;;19.70;88.50;;;;;;5050285;28;20052;-67
2022/06/24 10:18:39;;;;;;;0.00;0.00;;;19.60;88.20;;;;;;5049205;28;20048;-67
2022/06/24 10:21:08;;;;;;;0.00;0.00;;;19.60;88.50;;;;;;5047991;28;20041;-67
2022/06/24 10:23:46;;;;;;;0.10;0.10;;;19.60;88.50;;;;;;5043521;28;20069;-66
2022/06/24 10:26:27;;;;;;;0.00;0.00;;;19.50;88.20;;;;;;5045436;28;20044;-67
2022/06/24 10:29:04;;;;;;;0.00;0.00;;;19.50;87.50;;;;;;5048670;28;20048;-67
2022/06/24 10:31:42;;;;;;;0.00;0.00;;;19.40;87.60;;;;;;5050194;28;20087;-66
2022/06/24 10:34:12;;;;;;;0.00;0.00;;;19.40;87.50;;;;;;5050100;28;20080;-67
2022/06/24 10:36:38;;;;;;;0.10;0.10;;;19.50;87.90;;;;;;5049333;28;20041;-67
2022/06/24 10:39:09;;;;;;;0.00;0.00;;;19.60;88.00;;;;;;5045833;28;20041;-67
2022/06/24 10:41:39;;;;;;;0.00;0.00;;;19.60;88.00;;;;;;5049557;28;20080;-66
2022/06/24 10:44:28;;;;;;;1.10;0.82;;;19.60;88.00;;;;;;5050079;28;20049;-66
2022/06/24 10:47:11;;;;;;;0.00;0.00;;;19.70;87.90;;;;;;5044229;28;20029;-67
2022/06/24 10:52:37;;;;;;;0.10;0.10;;;19.80;87.90;;;;;;5042582;28;20041;-66
2022/06/24 10:55:15;;;;;;;0.00;0.00;;;19.80;87.70;;;;;;5031584;28;20045;-66
2022/06/24 10:57:41;;;;;;;0.00;0.00;;;19.90;87.40;;;;;;5042070;28;20045;-66
2022/06/24 11:00:27;;;;;;;4.65;0.47;;;20.00;87.60;;;;;;5049222;28;20154;-66
2022/06/24 11:02:57;;;;;;;0.00;0.00;;;20.00;87.50;;;;;;5048265;28;20044;-65
2022/06/24 11:05:26;;;;;;;0.20;0.20;;;20.00;87.20;;;;;;5045252;28;20049;-67
2022/06/24 11:07:52;;;;;;;1.13;1.08;;;20.00;86.70;;;;;;5036243;28;20406;-67
2022/06/24 11:10:19;;;;;;;0.30;0.30;;;20.10;86.50;;;;;;5049796;28;20144;-67
2022/06/24 11:12:54;;;;;;;0.00;0.00;;;20.10;86.20;;;;;;5046683;28;20036;-67
2022/06/24 11:15:41;;;;;;;0.00;0.00;;;20.10;86.10;;;;;;5049825;28;20039;-67
2022/06/24 11:18:08;;;;;;;0.00;0.00;;;20.30;86.20;;;;;;5050204;28;20127;-67
2022/06/24 11:20:42;;;;;;;0.00;0.00;;;20.30;86.00;;;;;;5047686;28;20502;-67
2022/06/24 11:23:10;;;;;;;0.00;0.00;;;20.30;84.90;;;;;;5048534;28;20033;-67
2022/06/24 11:25:39;;;;;;;0.00;0.00;;;20.40;85.20;;;;;;5040027;28;20099;-68
2022/06/24 11:28:04;;;;;;;0.30;0.30;;;20.40;85.00;;;;;;5048367;28;20120;-68
2022/06/24 11:30:30;;;;;;;0.00;0.00;;;20.40;85.10;;;;;;5049788;28;20168;-67
2022/06/24 11:33:03;;;;;;;0.10;0.10;;;20.50;84.90;;;;;;5049881;28;20418;-67
2022/06/24 11:35:30;;;;;;;0.10;0.10;;;20.40;84.10;;;;;;5049959;28;20604;-68
2022/06/24 11:37:56;;;;;;;0.10;0.10;;;20.40;84.10;;;;;;5049807;28;20052;-68
2022/06/24 11:40:31;;;;;;;0.10;0.10;;;20.50;84.00;;;;;;5049836;28;20045;-68
2022/06/24 11:43:02;;;;;;;0.00;0.00;;;20.50;84.00;;;;;;5048589;28;20465;-67
2022/06/24 11:45:36;;;;;;;0.00;0.00;;;20.50;84.10;;;;;;5049164;28;20127;-68
2022/06/24 11:48:03;;;;;;;0.10;0.10;;;20.60;83.90;;;;;;5049687;28;20099;-67
2022/06/24 11:50:29;;;;;;;0.00;0.00;;;20.70;84.00;;;;;;5049486;28;20037;-68
2022/06/24 11:52:58;;;;;;;0.00;0.00;;;20.80;84.00;;;;;;5049290;28;20059;-68
2022/06/24 11:55:29;;;;;;;0.00;0.00;;;20.80;83.70;;;;;;5048171;28;20056;-68
2022/06/24 11:57:56;;;;;;;;;;;20.90;83.20;;;;;;5050112;28;20048;-68
2022/06/24 12:00:23;;;;;;;0.00;0.00;;;21.00;82.80;;;;;;5037758;28;20283;-67
2022/06/24 12:02:51;;;;;;;0.00;0.00;;;21.00;82.10;;;;;;5029189;28;20060;-67
2022/06/24 12:05:18;;;;;;;0.10;0.10;;;21.10;82.00;;;;;;5035928;28;20122;-67
2022/06/24 12:07:44;;;;;;;0.00;0.00;;;21.10;81.10;;;;;;5049554;28;20045;-67
2022/06/24 12:10:11;;;;;;;0.00;0.00;;;21.10;81.30;;;;;;5049240;28;20127;-67
2022/06/24 12:12:55;;;;;;;0.10;0.10;;;21.00;80.20;;;;;;5045121;28;20044;-66
2022/06/24 12:15:25;;;;;;;0.30;0.30;;;21.00;80.20;;;;;;5048378;28;20048;-67
2022/06/24 12:17:54;;;;;;;0.00;0.00;;;21.00;80.70;;;;;;5047746;28;20053;-67
2022/06/24 12:20:25;;;;;;;0.30;0.30;;;21.00;80.40;;;;;;5047547;28;20041;-65
2022/06/24 12:23:13;;;;;;;0.30;0.28;;;21.00;80.70;;;;;;5048219;28;20493;-67
2022/06/24 12:25:43;;;;;;;0.00;0.00;;;21.10;80.40;;;;;;5047648;28;20049;-66
2022/06/24 12:28:16;;;;;;;0.30;0.30;;;21.00;80.80;;;;;;5048659;28;20091;-66
2022/06/24 12:30:41;;;;;;;0.10;0.10;;;21.10;79.80;;;;;;5047953;28;20045;-66
2022/06/24 12:33:13;;;;;;;0.00;0.00;;;21.10;80.00;;;;;;5048086;28;20098;-66
2022/06/24 12:35:39;;;;;;;0.00;0.00;;;21.10;80.50;;;;;;5037330;28;20079;-67
2022/06/24 12:38:10;;;;;;;0.00;0.00;;;21.20;80.60;;;;;;5047679;28;20037;-67
2022/06/24 12:40:36;;;;;;;0.00;0.00;;;21.20;80.30;;;;;;5047553;28;20056;-66
2022/06/24 12:43:11;;;;;;;0.08;0.08;;;21.30;80.60;;;;;;5047021;28;20052;-67
2022/06/24 12:45:39;;;;;;;0.30;0.25;;;21.50;80.40;;;;;;5035785;28;20044;-67
2022/06/24 12:51:00;;;;;;;0.00;0.00;;;21.60;80.30;;;;;;5048207;28;20044;-66
2022/06/24 12:53:26;;;;;;;0.90;0.70;;;21.60;80.20;;;;;;5048129;28;20506;-67
2022/06/24 12:55:52;;;;;;;0.00;0.00;;;21.60;79.70;;;;;;5048026;28;20029;-67
2022/06/24 12:58:18;;;;;;;0.20;0.20;;;21.80;80.00;;;;;;5047161;28;20045;-67
2022/06/24 13:00:44;;;;;;;0.00;0.00;;;22.00;80.10;;;;;;5048947;28;20049;-67
2022/06/24 13:03:10;;;;;;;0.00;0.00;;;22.00;79.10;;;;;;5048569;28;20072;-68